Terminal Aerodrome Forecast
Issued by NWS Mt. Holly, NJ

Home | Current Version | Previous Version | Text Only | Print | Product List | Glossary On
Versions: 1 2 3 4 5 6 7 8 9 10 11 12 13 14 15 16 17
519
FTUS41 KPHI 262102 AAA
TAFACY
TAF AMD
KACY 262102Z 2621/2718 17012KT P6SM OVC050
     FM262300 19008KT P6SM OVC035
     FM270600 22010KT 5SM -SHRA OVC015
     FM271300 29008KT 5SM -SHRA FEW007 OVC012
     FM271700 26007KT P6SM -SHRA OVC030=

USA.gov is the U.S. government's official web portal to all federal, state and local government web resources and services.